Flight Track Log - Related Links

Times and Time Zones

All times are in EDT time to prevent confusion due to time zone crossing. See the SWA59 flight status page for this flight to view local times or setup timezone preferences in your user account.

Time Position Orientation Groundspeed Altitude Reporting Facility
EDT Latitude Longitude Course Direction KTS km/h feet Rate Location/Type
Fri 22:09:41 32.8833 -96.8833 301° West 205 380 3.600  Level Dallas / Fort Worth TRACON
Fri 22:11:27 32.8744 -96.9756 263° West 246 455 10.300 3.542 Climbing Fort Worth Center
Fri 22:12:27 32.7825 -96.9883 187° South 230 426 13.400 3.400 Climbing Fort Worth Center
Fri 22:13:27 32.6803 -96.9742 173° South 309 573 17.100 3.750 Climbing Fort Worth Center
Fri 22:14:27 32.5653 -96.9575 173° South 400 740 20.900 3.550 Climbing Fort Worth Center
Fri 22:15:27 32.4506 -96.9408 173° South 422 782 24.200 3.050 Climbing Fort Worth Center
Fri 22:16:27 32.3292 -96.9217 172° South 434 803 27.000 2.800 Climbing Fort Worth Center
Fri 22:17:27 32.2186 -96.9025 172° South 445 824 29.800 2.750 Climbing Fort Worth Center
Fri 22:18:27 32.0911 -96.8836 173° South 452 837 32.500 1.600 Climbing Fort Worth Center
Fri 22:19:27 31.9617 -96.8672 174° South 464 859 33.000 146 Climbing Fort Worth Center
Fri 22:21:52 31.6436 -96.8211 173° South 484 896 33.000  Level Houston Center
Fri 22:22:53 31.5089 -96.8017 173° South 480 888 33.000  Level Houston Center
Fri 22:23:54 31.3769 -96.7553 163° South 491 909 33.000  Level Houston Center
Fri 22:24:55 31.2489 -96.6942 158° South 491 909 33.000 -984 Level Houston Center
Fri 22:25:56 31.1192 -96.6328 158° South 493 912 31.000 -2.459 Descending Houston Center
Fri 22:26:57 30.9900 -96.5714 158° South 494 914 28.000 -2.732 Descending Houston Center
Fri 22:27:59 30.8633 -96.5114 158° South 486 900 25.400 -2.537 Descending Houston Center
Fri 22:29:00 30.7417 -96.4550 158° South 471 872 22.800 -2.508 Descending Houston Center
Fri 22:30:01 30.6264 -96.4019 158° South 448 830 20.300 -2.526 Descending Houston Center
Fri 22:30:35 30.5528 -96.3678 158° South 429 795 18.800 -2.262 Descending Houston Center
Fri 22:31:02 30.5167 -96.3503 157° South 429 795 18.000 -2.459 Descending Houston Center
Fri 22:31:36 30.4372 -96.3153 159° South 409 758 16.300 -1.967 Descending Houston Center
Fri 22:32:03 30.4094 -96.3008 156° South 414 766 16.000 -2.328 Descending Houston Center
Fri 22:32:43 30.3239 -96.2625 159° South 396 734 13.700 -3.246 Descending Houston Center
Fri 22:33:04 30.2886 -96.2450 157° South 397 735 12.700 -2.291 Descending Houston Center
Fri 22:33:38 30.2364 -96.2217 159° South 384 711 11.600 -1.869 Descending Houston Center
Fri 22:34:05 30.1894 -96.1989 157° South 384 711 10.800 -1.343 Descending Houston Center
Fri 22:34:45 30.1267 -96.1664 156° South 367 679 10.100 -885 Descending Houston Center
Fri 22:35:06 30.1097 -96.1558 152° Southeast 370 686 9.900  Descending Houston Center
Fri 22:35:46 30.0436 -96.1008 144° Southeast 365 676 10.100  Climbing Houston Center
Fri 22:36:07 30.0325 -96.0814 123° Southeast 370 686 9.900  Descending Houston Center
Fri 22:36:40 29.9939 -96.0100 122° Southeast 363 673 10.100 98 Climbing Houston Center
Fri 22:37:08 29.9678 -95.9672 125° Southeast 367 679 10.000  Descending Houston Center
Fri 22:37:35 29.9419 -95.9197 122° Southeast 367 679 10.100 -98 Climbing Houston Center
Fri 22:38:09 29.9111 -95.8694 125° Southeast 367 679 9.900  Descending Houston Center
Fri 22:38:42 29.8803 -95.8158 124° Southeast 366 678 10.100  Climbing Houston Center
Fri 22:39:10 29.8561 -95.7722 123° Southeast 364 674 9.900 -492 Descending Houston Center
Fri 22:39:43 29.8233 -95.7167 124° Southeast 339 628 9.600 -885 Descending Houston Center
Fri 22:40:11 29.8039 -95.6822 123° Southeast 341 631 9.000 -1.377 Descending Houston Center
Fri 22:40:44 29.7733 -95.6286 123° Southeast 318 589 8.200 -1.377 Descending Houston Center
Fri 22:41:12 29.7553 -95.5978 124° Southeast 320 592 7.600 -1.300 Descending Houston Center
Fri 22:41:44 29.7261 -95.5475 124° Southeast 308 570 6.900 -1.377 Descending Houston Center
Fri 22:42:13 29.7086 -95.5175 124° Southeast 306 566 6.200 -885 Descending Houston Center
Fri 22:42:45 29.6814 -95.4711 124° Southeast 286 529 6.000 -295 Descending Houston Center
Fri 22:43:14 29.6664 -95.4447 123° Southeast 283 525 5.900 98 Descending Houston Center
Fri 22:43:46 29.6417 -95.4036 125° Southeast 250 463 6.100  Climbing Houston Center
Fri 22:44:15 29.6261 -95.3794 127° Southeast 255 472 5.900  Descending Houston Center
Fri 22:44:47 29.5917 -95.3400 135° Southeast 252 467 6.100  Climbing Houston Center
Fri 22:45:16 29.5767 -95.3233 136° Southeast 252 467 5.900 -984 Descending Houston Center
Fri 22:45:48 29.5425 -95.2836 135° Southeast 250 463 5.100 -1.475 Descending Houston Center
Fri 22:46:17 29.5178 -95.2572 137° Southeast 251 465 4.400 -1.500 Descending Houston Center
Fri 22:46:48 29.4933 -95.2294 135° Southeast 236 438 3.600 -2.066 Descending Houston Center
Fri 22:47:18 29.4886 -95.1994 100° East 233 431 2.300 -1.475 Descending Houston Center
Fri 22:47:49 29.5119 -95.1817 34° Northeast 177 328 2.100 -295 Descending Houston Center
Fri 22:48:19 29.5269 -95.1708 32° Northeast 192 356 2.000 98 Descending Houston Center
Fri 22:48:50 29.5478 -95.1819 335° Northwest 145 269 2.200 -98 Climbing Houston Center
Fri 22:49:20 29.5603 -95.1950 318° Northwest 167 309 1.900 -492 Descending Houston Center
Fri 22:49:51 29.5800 -95.2117 324° Northwest 153 283 1.700 -689 Descending Houston Center
Fri 22:50:21 29.5939 -95.2225 326° Northwest 156 290 1.200 -689 Descending Houston Center
Fri 22:50:52 29.6072 -95.2347 321° Northwest 117 217 1.000 -590 Descending Houston Center
Fri 22:51:22 29.6197 -95.2475 318° Northwest 138 256 600 -700 Descending Houston Center
Fri 22:51:52 29.6311 -95.2656 306° West 126 233 300 -600 Descending Houston Center

Login

Don't have an account? Register now (free) for customized features, flight alerts, and more!